Time;durP1;ratioP1;P1;durP2;ratioP2;P2;SDS_P1;SDS_P2;PMS_P1;PMS_P2;Temp;Humidity;BMP_temperature;BMP_pressure;BME280_temperature;BME280_humidity;BME280_pressure;Samples;Min_cycle;Max_cycle;Signal;HPM_P1;HPM_P2
2021/01/07 00:01:02;;;;;;;;;;;18.80;38.00;;;;;;491636;240;1054;-54
2021/01/07 00:03:03;;;;;;;;;;;18.80;38.00;;;;;;491801;240;1056;-54
2021/01/07 00:05:04;;;;;;;;;;;18.80;38.00;;;;;;491611;240;1054;-53
2021/01/07 00:07:05;;;;;;;;;;;18.80;38.00;;;;;;491867;240;1043;-54
2021/01/07 00:09:07;;;;;;;;;;;18.80;38.10;;;;;;491667;240;1049;-54
2021/01/07 00:11:08;;;;;;;;;;;18.80;38.10;;;;;;492029;240;1094;-54
2021/01/07 00:13:09;;;;;;;;;;;18.80;38.10;;;;;;491702;240;1092;-54
2021/01/07 00:15:11;;;;;;;;;;;18.80;38.10;;;;;;491814;240;1042;-54
2021/01/07 00:17:12;;;;;;;;;;;18.70;38.10;;;;;;491581;240;2184;-54
2021/01/07 00:19:13;;;;;;;;;;;18.70;38.10;;;;;;491827;240;1158;-54
2021/01/07 00:21:14;;;;;;;;;;;18.70;38.10;;;;;;491909;240;1047;-53
2021/01/07 00:23:16;;;;;;;;;;;18.70;36.80;;;;;;491939;240;1130;-54
2021/01/07 00:25:17;;;;;;;;;;;18.70;38.20;;;;;;491687;240;993;-54
2021/01/07 00:27:18;;;;;;;;;;;18.70;38.20;;;;;;491718;240;1163;-54
2021/01/07 00:29:20;;;;;;;;;;;18.70;38.20;;;;;;491652;240;1171;-54
2021/01/07 00:31:21;;;;;;;;;;;18.70;38.20;;;;;;491612;240;1454;-54
2021/01/07 00:33:22;;;;;;;;;;;18.60;38.10;;;;;;491789;240;1163;-54
2021/01/07 00:35:23;;;;;;;;;;;18.60;38.10;;;;;;491601;240;1262;-54
2021/01/07 00:37:25;;;;;;;;;;;18.60;38.20;;;;;;491657;240;2116;-54
2021/01/07 00:39:26;;;;;;;;;;;18.60;38.20;;;;;;491724;240;1041;-54
2021/01/07 00:41:27;;;;;;;;;;;18.60;38.20;;;;;;491820;240;1328;-54
2021/01/07 00:43:28;;;;;;;;;;;18.60;38.20;;;;;;491832;240;1243;-53
2021/01/07 00:45:30;;;;;;;;;;;18.60;38.30;;;;;;491795;240;1329;-54
2021/01/07 00:47:31;;;;;;;;;;;18.60;38.30;;;;;;491736;240;1090;-54
2021/01/07 00:49:32;;;;;;;;;;;18.60;38.30;;;;;;491761;240;1141;-54
2021/01/07 00:51:34;;;;;;;;;;;18.50;38.20;;;;;;491596;240;1059;-54
2021/01/07 00:53:35;;;;;;;;;;;18.60;38.30;;;;;;491735;240;1385;-54
2021/01/07 00:55:36;;;;;;;;;;;18.50;38.30;;;;;;491746;240;1018;-54
2021/01/07 00:57:37;;;;;;;;;;;18.50;38.30;;;;;;491771;240;2148;-54
2021/01/07 00:59:39;;;;;;;;;;;18.50;38.30;;;;;;491674;240;1027;-54
2021/01/07 01:01:40;;;;;;;;;;;18.50;38.30;;;;;;491670;240;1240;-54
2021/01/07 01:03:41;;;;;;;;;;;18.50;38.30;;;;;;491779;240;1445;-54
2021/01/07 01:05:42;;;;;;;;;;;18.50;38.30;;;;;;491642;240;1207;-54
2021/01/07 01:07:44;;;;;;;;;;;18.50;38.30;;;;;;491986;240;1073;-54
2021/01/07 01:09:45;;;;;;;;;;;18.50;38.30;;;;;;491681;240;1196;-54
2021/01/07 01:11:46;;;;;;;;;;;18.50;38.30;;;;;;491701;240;1277;-53
2021/01/07 01:13:48;;;;;;;;;;;18.50;38.30;;;;;;492047;240;1083;-54
2021/01/07 01:15:49;;;;;;;;;;;18.50;38.40;;;;;;491824;240;1283;-53
2021/01/07 01:17:50;;;;;;;;;;;18.50;38.30;;;;;;491611;240;2183;-53
2021/01/07 01:19:51;;;;;;;;;;;18.50;38.40;;;;;;491626;240;1136;-54
2021/01/07 01:21:53;;;;;;;;;;;18.50;38.40;;;;;;491615;240;1188;-54
2021/01/07 01:23:54;;;;;;;;;;;18.40;38.30;;;;;;491653;240;1202;-54
2021/01/07 01:25:55;;;;;;;;;;;18.40;38.30;;;;;;491637;240;1231;-54
2021/01/07 01:27:57;;;;;;;;;;;18.40;38.30;;;;;;491681;240;1156;-54
2021/01/07 01:29:58;;;;;;;;;;;18.40;38.40;;;;;;491607;240;1253;-54
2021/01/07 01:31:59;;;;;;;;;;;18.40;38.30;;;;;;491609;240;1167;-54
2021/01/07 01:34:00;;;;;;;;;;;18.40;38.40;;;;;;491818;240;1108;-54
2021/01/07 01:36:02;;;;;;;;;;;18.40;38.40;;;;;;491770;240;1251;-54
2021/01/07 01:38:03;;;;;;;;;;;18.40;38.30;;;;;;491746;240;2125;-54
2021/01/07 01:40:04;;;;;;;;;;;18.40;38.30;;;;;;491839;240;1513;-53
2021/01/07 01:42:05;;;;;;;;;;;18.40;38.40;;;;;;491919;240;1235;-54
2021/01/07 01:44:07;;;;;;;;;;;18.40;38.40;;;;;;491764;240;1059;-54
2021/01/07 01:46:08;;;;;;;;;;;18.40;38.40;;;;;;491538;240;1200;-54
2021/01/07 01:48:09;;;;;;;;;;;18.40;38.40;;;;;;491935;240;978;-54
2021/01/07 01:50:11;;;;;;;;;;;18.40;38.40;;;;;;491737;240;1216;-54
2021/01/07 01:52:12;;;;;;;;;;;18.40;38.40;;;;;;491761;240;938;-54
2021/01/07 01:54:13;;;;;;;;;;;18.30;38.40;;;;;;491839;240;1062;-54
2021/01/07 01:56:14;;;;;;;;;;;18.30;38.40;;;;;;491757;240;1224;-54
2021/01/07 01:58:16;;;;;;;;;;;18.30;38.40;;;;;;491628;240;2176;-54
2021/01/07 02:00:17;;;;;;;;;;;18.40;38.40;;;;;;491669;240;1041;-54
2021/01/07 02:02:18;;;;;;;;;;;18.30;38.30;;;;;;491641;240;996;-54
2021/01/07 02:04:19;;;;;;;;;;;18.40;38.40;;;;;;491777;240;993;-54
2021/01/07 02:06:21;;;;;;;;;;;18.30;38.40;;;;;;491634;240;965;-54
2021/01/07 02:08:23;;;;;;;;;;;18.40;38.40;;;;;;491713;240;1046;-54
2021/01/07 02:10:24;;;;;;;;;;;18.40;38.30;;;;;;491753;240;1198;-54
2021/01/07 02:12:25;;;;;;;;;;;18.40;38.20;;;;;;491694;239;1787;-54
2021/01/07 02:14:26;;;;;;;;;;;18.40;38.20;;;;;;491648;240;1074;-54
2021/01/07 02:16:28;;;;;;;;;;;18.40;38.20;;;;;;491905;240;1180;-54
2021/01/07 02:18:29;;;;;;;;;;;18.40;38.10;;;;;;491613;240;2188;-54
2021/01/07 02:20:30;;;;;;;;;;;18.40;38.10;;;;;;491678;240;1170;-54
2021/01/07 02:22:32;;;;;;;;;;;18.50;38.10;;;;;;491673;240;1172;-54
2021/01/07 02:24:33;;;;;;;;;;;18.50;38.10;;;;;;491722;240;1336;-54
2021/01/07 02:26:34;;;;;;;;;;;18.50;38.00;;;;;;491622;240;1442;-54
2021/01/07 02:28:35;;;;;;;;;;;18.50;38.00;;;;;;491843;240;1139;-54
2021/01/07 02:30:37;;;;;;;;;;;18.60;38.00;;;;;;491746;240;1079;-54
2021/01/07 02:32:38;;;;;;;;;;;18.50;37.90;;;;;;491691;240;1082;-54
2021/01/07 02:34:39;;;;;;;;;;;18.60;37.90;;;;;;491810;240;964;-54
2021/01/07 02:36:40;;;;;;;;;;;18.60;37.90;;;;;;491794;240;1158;-55
2021/01/07 02:38:42;;;;;;;;;;;18.60;37.90;;;;;;491619;240;2199;-54
2021/01/07 02:40:43;;;;;;;;;;;18.60;37.80;;;;;;491776;240;1094;-54
2021/01/07 02:42:44;;;;;;;;;;;18.60;37.80;;;;;;491820;240;1113;-54
2021/01/07 02:44:45;;;;;;;;;;;18.60;37.80;;;;;;491669;240;1004;-53
2021/01/07 02:46:47;;;;;;;;;;;18.70;37.80;;;;;;491632;240;1526;-54
2021/01/07 02:48:48;;;;;;;;;;;18.70;37.80;;;;;;491608;240;1171;-54
2021/01/07 02:50:49;;;;;;;;;;;18.70;37.80;;;;;;491884;240;1035;-54
2021/01/07 02:52:51;;;;;;;;;;;18.70;37.70;;;;;;491605;240;1079;-54
2021/01/07 02:54:52;;;;;;;;;;;18.70;37.70;;;;;;491776;240;1027;-54
2021/01/07 02:56:53;;;;;;;;;;;18.80;37.70;;;;;;491668;240;1268;-54
2021/01/07 02:58:54;;;;;;;;;;;18.80;37.70;;;;;;491874;240;2161;-54
2021/01/07 03:00:56;;;;;;;;;;;18.80;37.70;;;;;;491810;240;1069;-54
2021/01/07 03:02:57;;;;;;;;;;;18.80;37.60;;;;;;491658;240;1214;-54
2021/01/07 03:04:59;;;;;;;;;;;18.80;37.60;;;;;;491637;240;1089;-54
2021/01/07 03:07:00;;;;;;;;;;;18.90;37.60;;;;;;491636;240;1008;-54
2021/01/07 03:09:01;;;;;;;;;;;18.80;36.20;;;;;;491985;240;1129;-54
2021/01/07 03:11:03;;;;;;;;;;;18.90;37.60;;;;;;491720;240;1194;-54
2021/01/07 03:13:04;;;;;;;;;;;18.90;37.60;;;;;;491631;240;1288;-54
2021/01/07 03:15:05;;;;;;;;;;;18.90;37.50;;;;;;491618;240;1183;-54
2021/01/07 03:17:06;;;;;;;;;;;18.90;37.50;;;;;;491741;240;2172;-54
2021/01/07 03:19:08;;;;;;;;;;;18.90;37.50;;;;;;491903;240;1460;-54
2021/01/07 03:21:09;;;;;;;;;;;18.90;37.50;;;;;;491616;240;1270;-54
2021/01/07 03:23:10;;;;;;;;;;;18.90;37.40;;;;;;491669;240;1083;-54
2021/01/07 03:25:11;;;;;;;;;;;19.00;37.40;;;;;;491709;240;1372;-54
2021/01/07 03:27:13;;;;;;;;;;;19.00;37.40;;;;;;491638;240;1101;-54
2021/01/07 03:29:14;;;;;;;;;;;19.00;37.40;;;;;;491880;240;1127;-54
2021/01/07 03:31:15;;;;;;;;;;;19.00;37.40;;;;;;491883;240;1012;-54
2021/01/07 03:33:17;;;;;;;;;;;19.00;37.40;;;;;;491750;240;1064;-54
2021/01/07 03:35:18;;;;;;;;;;;19.00;37.40;;;;;;491770;240;1030;-54
2021/01/07 03:37:19;;;;;;;;;;;19.00;37.40;;;;;;491641;240;2187;-54
2021/01/07 03:39:21;;;;;;;;;;;19.00;37.40;;;;;;491665;240;960;-54
2021/01/07 03:41:22;;;;;;;;;;;19.10;37.40;;;;;;491654;240;965;-54
2021/01/07 03:43:23;;;;;;;;;;;19.10;37.40;;;;;;491922;240;1091;-54
2021/01/07 03:45:24;;;;;;;;;;;19.10;37.40;;;;;;491656;240;1223;-54
2021/01/07 03:47:26;;;;;;;;;;;19.10;37.40;;;;;;491599;240;1192;-54
2021/01/07 03:49:27;;;;;;;;;;;19.10;37.30;;;;;;491645;240;982;-54
2021/01/07 03:51:28;;;;;;;;;;;19.10;37.30;;;;;;491658;240;1219;-54
2021/01/07 03:53:29;;;;;;;;;;;19.10;37.30;;;;;;491869;240;1155;-54
2021/01/07 03:55:31;;;;;;;;;;;19.10;37.20;;;;;;491619;240;1131;-54
2021/01/07 03:57:32;;;;;;;;;;;19.10;37.20;;;;;;491585;240;2181;-54
2021/01/07 03:59:33;;;;;;;;;;;19.10;37.20;;;;;;491910;240;1088;-54
2021/01/07 04:01:34;;;;;;;;;;;19.10;37.20;;;;;;491599;240;1148;-54
2021/01/07 04:03:36;;;;;;;;;;;19.10;37.20;;;;;;491681;240;1100;-54
2021/01/07 04:05:37;;;;;;;;;;;19.20;37.20;;;;;;491565;240;1302;-54
2021/01/07 04:07:38;;;;;;;;;;;19.20;37.20;;;;;;491804;240;1350;-54
2021/01/07 04:09:40;;;;;;;;;;;19.20;37.20;;;;;;491874;240;1259;-53
2021/01/07 04:11:41;;;;;;;;;;;19.20;37.20;;;;;;491708;240;1038;-54
2021/01/07 04:13:42;;;;;;;;;;;19.20;37.10;;;;;;491912;240;1058;-54
2021/01/07 04:15:43;;;;;;;;;;;19.20;37.10;;;;;;491640;240;1352;-54
2021/01/07 04:17:45;;;;;;;;;;;19.20;37.10;;;;;;491639;240;2180;-54
2021/01/07 04:19:46;;;;;;;;;;;19.20;37.10;;;;;;491922;240;1152;-54
2021/01/07 04:21:47;;;;;;;;;;;19.30;37.20;;;;;;491692;240;969;-54
2021/01/07 04:23:49;;;;;;;;;;;19.20;37.10;;;;;;491671;240;1205;-54
2021/01/07 04:25:50;;;;;;;;;;;19.30;35.80;;;;;;491632;240;1178;-54
2021/01/07 04:27:51;;;;;;;;;;;19.30;37.10;;;;;;491664;240;1251;-54
2021/01/07 04:29:52;;;;;;;;;;;19.30;37.10;;;;;;491739;240;1176;-54
2021/01/07 04:31:54;;;;;;;;;;;19.30;37.10;;;;;;491758;240;1252;-54
2021/01/07 04:33:55;;;;;;;;;;;19.30;37.10;;;;;;491604;240;1222;-54
2021/01/07 04:35:56;;;;;;;;;;;19.30;37.10;;;;;;491633;240;1042;-54
2021/01/07 04:37:57;;;;;;;;;;;19.30;37.10;;;;;;491740;240;2129;-54
2021/01/07 04:39:59;;;;;;;;;;;19.30;37.00;;;;;;491706;240;969;-54
2021/01/07 04:42:06;;;;;;;;;;;19.30;37.00;;;;;;491590;240;1267;-54
2021/01/07 04:44:04;;;;;;;;;;;19.30;37.00;;;;;;490780;242;1344;-54
2021/01/07 04:46:05;;;;;;;;;;;19.30;37.00;;;;;;491632;240;1242;-54
2021/01/07 04:48:07;;;;;;;;;;;19.30;37.00;;;;;;491582;240;1120;-54
2021/01/07 04:50:08;;;;;;;;;;;19.40;37.00;;;;;;491721;240;1070;-54
2021/01/07 04:52:10;;;;;;;;;;;19.30;37.00;;;;;;491541;240;1321;-54
2021/01/07 04:54:11;;;;;;;;;;;19.40;37.00;;;;;;491694;240;1067;-54
2021/01/07 04:56:12;;;;;;;;;;;19.40;37.00;;;;;;491580;240;1075;-54
2021/01/07 04:58:13;;;;;;;;;;;19.40;37.00;;;;;;491653;240;2132;-54
2021/01/07 05:00:15;;;;;;;;;;;19.40;37.00;;;;;;491528;240;1349;-54
2021/01/07 05:02:16;;;;;;;;;;;19.40;37.00;;;;;;491588;240;1231;-55
2021/01/07 05:04:17;;;;;;;;;;;19.40;37.00;;;;;;491572;240;1134;-54
2021/01/07 05:06:19;;;;;;;;;;;19.40;36.90;;;;;;491713;240;1038;-55
2021/01/07 05:08:20;;;;;;;;;;;19.40;36.90;;;;;;491642;240;1119;-54
2021/01/07 05:10:21;;;;;;;;;;;19.40;36.90;;;;;;491870;240;1077;-54
2021/01/07 05:12:22;;;;;;;;;;;19.40;36.90;;;;;;491734;240;1442;-54
2021/01/07 05:14:24;;;;;;;;;;;19.40;36.90;;;;;;491850;240;1225;-54
2021/01/07 05:16:25;;;;;;;;;;;19.40;36.90;;;;;;491642;240;1204;-54
2021/01/07 05:18:26;;;;;;;;;;;19.40;36.90;;;;;;491729;240;2125;-54
2021/01/07 05:20:27;;;;;;;;;;;19.50;36.90;;;;;;491729;240;1248;-54
2021/01/07 05:22:29;;;;;;;;;;;19.40;36.80;;;;;;491646;240;1301;-54
2021/01/07 05:24:30;;;;;;;;;;;19.50;36.90;;;;;;491812;240;1262;-54
2021/01/07 05:26:31;;;;;;;;;;;19.50;36.90;;;;;;491630;240;1222;-54
2021/01/07 05:28:33;;;;;;;;;;;19.50;36.90;;;;;;491690;240;1042;-54
2021/01/07 05:30:34;;;;;;;;;;;19.50;36.90;;;;;;491660;240;1191;-54
2021/01/07 05:32:35;;;;;;;;;;;19.50;36.90;;;;;;491568;240;1235;-54
2021/01/07 05:34:36;;;;;;;;;;;19.50;36.90;;;;;;491635;240;1119;-54
2021/01/07 05:36:38;;;;;;;;;;;19.50;36.90;;;;;;491567;240;1118;-54
2021/01/07 05:38:39;;;;;;;;;;;19.50;36.90;;;;;;491643;240;2146;-54
2021/01/07 05:40:40;;;;;;;;;;;19.50;36.80;;;;;;491596;240;1097;-54
2021/01/07 05:42:42;;;;;;;;;;;19.50;36.80;;;;;;491566;240;1158;-54
2021/01/07 05:44:43;;;;;;;;;;;19.50;36.80;;;;;;491660;240;1096;-54
2021/01/07 05:46:44;;;;;;;;;;;19.50;36.80;;;;;;491627;240;1113;-54
2021/01/07 05:48:45;;;;;;;;;;;19.60;36.90;;;;;;491704;240;1189;-54
2021/01/07 05:50:47;;;;;;;;;;;19.50;36.80;;;;;;491596;240;1066;-54
2021/01/07 05:52:48;;;;;;;;;;;19.60;36.90;;;;;;491564;240;1199;-54
2021/01/07 05:54:49;;;;;;;;;;;19.60;36.80;;;;;;491756;240;1020;-54
2021/01/07 05:56:51;;;;;;;;;;;19.50;36.80;;;;;;491546;240;1245;-54
2021/01/07 05:58:52;;;;;;;;;;;19.50;36.80;;;;;;491646;240;2144;-53
2021/01/07 06:00:53;;;;;;;;;;;19.60;36.80;;;;;;491753;240;1179;-54
2021/01/07 06:02:54;;;;;;;;;;;19.60;36.90;;;;;;491919;240;1095;-54
2021/01/07 06:04:56;;;;;;;;;;;19.60;36.80;;;;;;491539;240;1214;-54
2021/01/07 06:06:57;;;;;;;;;;;19.60;36.80;;;;;;491468;240;1142;-54
2021/01/07 06:08:58;;;;;;;;;;;19.60;36.80;;;;;;491586;240;994;-54
2021/01/07 06:11:00;;;;;;;;;;;19.60;36.80;;;;;;491537;240;1187;-54
2021/01/07 06:13:01;;;;;;;;;;;19.60;36.80;;;;;;491550;240;1117;-54
2021/01/07 06:15:02;;;;;;;;;;;19.60;36.80;;;;;;491584;240;1037;-54
2021/01/07 06:17:03;;;;;;;;;;;19.60;36.80;;;;;;491586;240;1261;-54
2021/01/07 06:19:05;;;;;;;;;;;19.60;36.80;;;;;;491527;240;2150;-54
2021/01/07 06:21:06;;;;;;;;;;;19.60;36.70;;;;;;491528;238;1101;-54
2021/01/07 06:23:07;;;;;;;;;;;19.60;36.70;;;;;;491532;240;1284;-54
2021/01/07 06:25:08;;;;;;;;;;;19.60;36.70;;;;;;491882;240;1038;-54
2021/01/07 06:27:10;;;;;;;;;;;19.70;36.80;;;;;;491482;240;1109;-54
2021/01/07 06:29:11;;;;;;;;;;;19.60;36.70;;;;;;491524;240;1195;-54
2021/01/07 06:31:12;;;;;;;;;;;19.60;36.70;;;;;;491512;240;1287;-54
2021/01/07 06:33:14;;;;;;;;;;;19.70;36.80;;;;;;491423;240;1225;-54
2021/01/07 06:35:15;;;;;;;;;;;19.60;36.70;;;;;;491559;240;1050;-54
2021/01/07 06:37:16;;;;;;;;;;;19.60;36.70;;;;;;491525;240;1280;-54
2021/01/07 06:39:17;;;;;;;;;;;19.60;36.70;;;;;;491420;240;2204;-54
2021/01/07 06:41:19;;;;;;;;;;;19.60;36.70;;;;;;491507;240;1248;-54
2021/01/07 06:43:20;;;;;;;;;;;19.70;36.70;;;;;;491574;240;1147;-54
2021/01/07 06:45:22;;;;;;;;;;;19.70;36.70;;;;;;491440;240;1693;-54
2021/01/07 06:47:23;;;;;;;;;;;19.70;36.70;;;;;;491421;240;1174;-54
2021/01/07 06:49:24;;;;;;;;;;;19.70;36.70;;;;;;491494;240;995;-54
2021/01/07 06:51:26;;;;;;;;;;;19.70;36.70;;;;;;491550;240;1186;-54
2021/01/07 06:53:27;;;;;;;;;;;19.70;36.70;;;;;;491521;240;1201;-54
2021/01/07 06:55:28;;;;;;;;;;;19.70;36.70;;;;;;491591;240;1133;-54
2021/01/07 06:57:29;;;;;;;;;;;19.70;36.70;;;;;;491408;240;1106;-54
2021/01/07 06:59:31;;;;;;;;;;;19.70;36.70;;;;;;491461;240;2183;-54
2021/01/07 07:01:32;;;;;;;;;;;19.70;36.70;;;;;;491288;240;1178;-54
2021/01/07 07:03:33;;;;;;;;;;;19.70;36.70;;;;;;491604;240;1063;-54
2021/01/07 07:05:35;;;;;;;;;;;19.70;36.60;;;;;;491435;240;1077;-54
2021/01/07 07:07:36;;;;;;;;;;;19.70;36.70;;;;;;491442;240;1122;-54
2021/01/07 07:09:38;;;;;;;;;;;19.70;36.60;;;;;;491448;240;1150;-54
2021/01/07 07:11:39;;;;;;;;;;;19.70;36.60;;;;;;491473;240;1041;-54
2021/01/07 07:13:40;;;;;;;;;;;19.70;36.70;;;;;;491406;240;1047;-54
2021/01/07 07:15:42;;;;;;;;;;;19.70;36.60;;;;;;491396;240;1050;-54
2021/01/07 07:17:43;;;;;;;;;;;19.80;36.70;;;;;;491459;240;1186;-54
2021/01/07 07:19:45;;;;;;;;;;;19.80;36.70;;;;;;491336;240;2187;-54
2021/01/07 07:21:46;;;;;;;;;;;19.80;36.70;;;;;;491397;240;984;-54
2021/01/07 07:23:47;;;;;;;;;;;19.70;36.60;;;;;;491401;240;1041;-54
2021/01/07 07:25:48;;;;;;;;;;;19.80;35.30;;;;;;491360;240;1017;-54
2021/01/07 07:27:50;;;;;;;;;;;19.70;36.60;;;;;;491261;240;1198;-55
2021/01/07 07:29:51;;;;;;;;;;;19.70;36.60;;;;;;491409;240;976;-54
2021/01/07 07:31:52;;;;;;;;;;;19.80;36.60;;;;;;491297;240;1183;-54
2021/01/07 07:33:54;;;;;;;;;;;19.80;36.60;;;;;;491354;240;984;-54
2021/01/07 07:35:55;;;;;;;;;;;19.70;36.60;;;;;;491331;240;1310;-54
2021/01/07 07:37:56;;;;;;;;;;;19.70;36.60;;;;;;491278;240;1189;-54
2021/01/07 07:39:57;;;;;;;;;;;19.70;36.50;;;;;;491299;240;2144;-54
2021/01/07 07:41:59;;;;;;;;;;;19.80;36.60;;;;;;491265;240;1179;-54
2021/01/07 07:44:00;;;;;;;;;;;19.80;36.60;;;;;;491438;240;1060;-54
2021/01/07 07:46:02;;;;;;;;;;;19.80;36.60;;;;;;491273;240;1227;-54
2021/01/07 07:48:03;;;;;;;;;;;19.80;36.60;;;;;;491321;240;1168;-54
2021/01/07 07:50:04;;;;;;;;;;;19.80;36.60;;;;;;491346;240;1026;-54
2021/01/07 07:52:05;;;;;;;;;;;19.80;36.60;;;;;;491428;240;985;-54
2021/01/07 07:54:07;;;;;;;;;;;19.80;36.50;;;;;;491341;240;1046;-54
2021/01/07 07:56:08;;;;;;;;;;;19.80;36.60;;;;;;491365;240;1086;-54
2021/01/07 07:58:09;;;;;;;;;;;19.80;36.50;;;;;;491254;240;1071;-54
2021/01/07 08:00:11;;;;;;;;;;;19.80;36.50;;;;;;491148;240;2176;-54
2021/01/07 08:02:12;;;;;;;;;;;19.80;36.60;;;;;;491197;240;1190;-54
2021/01/07 08:04:13;;;;;;;;;;;19.80;36.60;;;;;;491284;240;1015;-54
2021/01/07 08:06:14;;;;;;;;;;;19.80;36.50;;;;;;491228;240;1107;-54
2021/01/07 08:08:16;;;;;;;;;;;19.80;36.50;;;;;;491319;240;1018;-54
2021/01/07 08:10:17;;;;;;;;;;;19.80;36.50;;;;;;491126;240;1181;-54
2021/01/07 08:12:19;;;;;;;;;;;19.80;36.50;;;;;;491247;240;1263;-54
2021/01/07 08:14:20;;;;;;;;;;;19.80;36.50;;;;;;491298;240;1104;-54
2021/01/07 08:16:21;;;;;;;;;;;19.80;35.20;;;;;;491210;240;1241;-54
2021/01/07 08:18:22;;;;;;;;;;;19.80;36.50;;;;;;491302;240;1243;-54
2021/01/07 08:20:24;;;;;;;;;;;19.80;36.50;;;;;;490958;240;2120;-54
2021/01/07 08:22:25;;;;;;;;;;;19.80;36.50;;;;;;491218;240;1270;-53
2021/01/07 08:24:27;;;;;;;;;;;19.80;36.50;;;;;;491271;240;1117;-54
2021/01/07 08:26:28;;;;;;;;;;;19.80;36.50;;;;;;491038;240;1189;-54
2021/01/07 08:28:29;;;;;;;;;;;19.80;36.50;;;;;;491236;240;960;-54
2021/01/07 08:30:31;;;;;;;;;;;19.80;36.50;;;;;;491186;240;1253;-54
2021/01/07 08:32:32;;;;;;;;;;;19.80;36.50;;;;;;491193;240;1142;-54
2021/01/07 08:34:33;;;;;;;;;;;19.80;36.50;;;;;;491240;240;1040;-54
2021/01/07 08:36:35;;;;;;;;;;;19.80;36.50;;;;;;491191;240;1215;-54
2021/01/07 08:38:36;;;;;;;;;;;19.90;36.50;;;;;;491225;240;1039;-54
2021/01/07 08:40:37;;;;;;;;;;;19.90;36.60;;;;;;491096;240;2184;-54
2021/01/07 08:42:38;;;;;;;;;;;19.90;36.50;;;;;;491212;240;1195;-54
2021/01/07 08:44:40;;;;;;;;;;;19.90;36.50;;;;;;491298;240;970;-54
2021/01/07 08:46:41;;;;;;;;;;;19.90;36.50;;;;;;491216;240;1346;-54
2021/01/07 08:48:42;;;;;;;;;;;19.90;36.50;;;;;;491223;240;1185;-54
2021/01/07 08:50:44;;;;;;;;;;;19.90;36.50;;;;;;491200;240;1190;-54
2021/01/07 08:52:45;;;;;;;;;;;19.90;35.20;;;;;;491095;240;1106;-54
2021/01/07 08:54:46;;;;;;;;;;;19.90;36.50;;;;;;491365;240;1239;-54
2021/01/07 08:56:48;;;;;;;;;;;19.90;36.50;;;;;;491271;240;1073;-54
2021/01/07 08:58:49;;;;;;;;;;;19.90;36.50;;;;;;491309;240;1189;-54
2021/01/07 09:00:50;;;;;;;;;;;19.90;36.50;;;;;;491297;240;2188;-54
2021/01/07 09:02:52;;;;;;;;;;;19.90;36.40;;;;;;491274;240;1335;-54
2021/01/07 09:04:54;;;;;;;;;;;19.90;36.50;;;;;;491282;240;1305;-54
2021/01/07 09:06:54;;;;;;;;;;;19.90;36.50;;;;;;491227;240;2248;-54
2021/01/07 09:08:55;;;;;;;;;;;19.90;36.40;;;;;;491304;240;1074;-54
2021/01/07 09:10:57;;;;;;;;;;;19.90;36.50;;;;;;491269;240;1077;-54
2021/01/07 09:12:58;;;;;;;;;;;19.90;36.50;;;;;;491200;240;1186;-54
2021/01/07 09:15:00;;;;;;;;;;;19.90;36.40;;;;;;491198;240;1078;-54
2021/01/07 09:17:01;;;;;;;;;;;19.90;36.50;;;;;;491122;240;1171;-54
2021/01/07 09:19:02;;;;;;;;;;;19.90;36.40;;;;;;491279;240;1228;-54
2021/01/07 09:21:04;;;;;;;;;;;19.90;36.40;;;;;;491156;240;2195;-54
2021/01/07 09:23:05;;;;;;;;;;;19.90;36.40;;;;;;491278;240;1093;-54
2021/01/07 09:25:07;;;;;;;;;;;19.90;36.50;;;;;;491292;240;1171;-54
2021/01/07 09:27:08;;;;;;;;;;;19.90;36.40;;;;;;491390;240;1094;-54
2021/01/07 09:29:09;;;;;;;;;;;19.90;36.40;;;;;;491242;240;1066;-54
2021/01/07 09:31:11;;;;;;;;;;;19.90;36.40;;;;;;491190;240;1166;-54
2021/01/07 09:33:12;;;;;;;;;;;19.90;36.40;;;;;;491167;240;1104;-54
2021/01/07 09:35:13;;;;;;;;;;;20.00;36.40;;;;;;491309;240;1056;-54
2021/01/07 09:37:14;;;;;;;;;;;19.90;36.40;;;;;;491277;240;1041;-54
2021/01/07 09:39:16;;;;;;;;;;;19.90;35.10;;;;;;491295;240;2195;-54
2021/01/07 09:41:17;;;;;;;;;;;19.90;36.40;;;;;;491302;240;1051;-54
2021/01/07 09:43:18;;;;;;;;;;;19.90;36.40;;;;;;491377;240;972;-54
2021/01/07 09:45:19;;;;;;;;;;;19.90;36.40;;;;;;491392;240;1087;-54
2021/01/07 09:47:21;;;;;;;;;;;19.90;36.40;;;;;;491349;240;1016;-54
2021/01/07 09:49:22;;;;;;;;;;;19.90;36.40;;;;;;491310;240;1586;-54
2021/01/07 09:51:24;;;;;;;;;;;20.00;36.40;;;;;;491281;240;1040;-54
2021/01/07 09:53:25;;;;;;;;;;;20.00;36.40;;;;;;491325;240;1058;-54
2021/01/07 09:55:26;;;;;;;;;;;19.90;36.40;;;;;;491315;240;1062;-54
2021/01/07 09:57:27;;;;;;;;;;;20.00;36.40;;;;;;491260;240;1177;-54
2021/01/07 09:59:29;;;;;;;;;;;20.00;36.40;;;;;;491203;240;2133;-54
2021/01/07 10:01:30;;;;;;;;;;;20.00;36.40;;;;;;491207;240;1113;-54
2021/01/07 10:03:31;;;;;;;;;;;20.00;36.40;;;;;;491318;240;1153;-54
2021/01/07 10:05:33;;;;;;;;;;;20.00;36.40;;;;;;491261;240;1051;-54
2021/01/07 10:07:34;;;;;;;;;;;20.00;36.40;;;;;;491262;240;1015;-54
2021/01/07 10:09:35;;;;;;;;;;;20.00;36.40;;;;;;491215;240;989;-54
2021/01/07 10:11:36;;;;;;;;;;;20.00;36.30;;;;;;491093;240;1074;-54
2021/01/07 10:13:38;;;;;;;;;;;20.00;36.30;;;;;;491239;240;1200;-54
2021/01/07 10:15:39;;;;;;;;;;;20.00;35.10;;;;;;491162;240;1037;-54
2021/01/07 10:17:40;;;;;;;;;;;20.00;36.70;;;;;;491227;240;1256;-54
2021/01/07 10:19:41;;;;;;;;;;;20.10;36.50;;;;;;491291;240;2187;-54
2021/01/07 10:21:43;;;;;;;;;;;20.10;36.30;;;;;;491308;240;1064;-54
2021/01/07 10:23:44;;;;;;;;;;;20.10;36.10;;;;;;491288;240;1183;-54
2021/01/07 10:25:45;;;;;;;;;;;20.10;36.20;;;;;;491254;240;1062;-54
2021/01/07 10:27:47;;;;;;;;;;;20.00;35.00;;;;;;491208;240;1246;-54
2021/01/07 10:29:48;;;;;;;;;;;20.00;36.30;;;;;;491238;240;1089;-54
2021/01/07 10:31:49;;;;;;;;;;;20.00;35.10;;;;;;491186;240;1388;-54
2021/01/07 10:33:51;;;;;;;;;;;19.90;36.40;;;;;;491167;240;1161;-54
2021/01/07 10:35:52;;;;;;;;;;;19.90;36.50;;;;;;491134;240;1087;-54
2021/01/07 10:37:53;;;;;;;;;;;19.90;36.60;;;;;;491207;240;1248;-54
2021/01/07 10:39:55;;;;;;;;;;;19.80;35.40;;;;;;491187;240;2196;-54
2021/01/07 10:41:57;;;;;;;;;;;19.80;36.70;;;;;;491092;240;1246;-54
2021/01/07 10:43:58;;;;;;;;;;;19.80;36.80;;;;;;491187;240;1174;-54
2021/01/07 10:45:59;;;;;;;;;;;19.70;36.80;;;;;;491179;240;1030;-54
2021/01/07 10:48:00;;;;;;;;;;;19.70;36.80;;;;;;491197;240;1229;-54
2021/01/07 10:50:02;;;;;;;;;;;19.70;36.90;;;;;;491093;240;1180;-54
2021/01/07 10:52:03;;;;;;;;;;;19.60;36.90;;;;;;491153;240;1228;-54
2021/01/07 10:54:04;;;;;;;;;;;19.60;37.00;;;;;;491195;240;1050;-54
2021/01/07 10:56:06;;;;;;;;;;;19.50;35.70;;;;;;491232;240;1039;-54
2021/01/07 10:58:07;;;;;;;;;;;19.50;37.00;;;;;;491252;240;1160;-54
2021/01/07 11:00:08;;;;;;;;;;;19.50;37.10;;;;;;491342;240;2132;-54
2021/01/07 11:02:09;;;;;;;;;;;19.50;37.10;;;;;;491347;240;1131;-53
2021/01/07 11:04:13;;;;;;;;;;;19.50;37.20;;;;;;491298;240;1171;-54
2021/01/07 11:06:13;;;;;;;;;;;19.40;37.20;;;;;;491236;240;1551;-54
2021/01/07 11:08:15;;;;;;;;;;;19.40;37.20;;;;;;491236;240;1134;-54
2021/01/07 11:10:16;;;;;;;;;;;19.40;37.30;;;;;;491370;240;1191;-53
2021/01/07 11:12:17;;;;;;;;;;;19.40;37.30;;;;;;491197;240;1233;-54
2021/01/07 11:14:18;;;;;;;;;;;19.40;37.40;;;;;;491368;240;1037;-54
2021/01/07 11:16:21;;;;;;;;;;;19.30;37.30;;;;;;491171;240;1170;-54
2021/01/07 11:18:21;;;;;;;;;;;19.30;37.40;;;;;;491250;241;2368;-54
2021/01/07 11:20:22;;;;;;;;;;;19.30;37.40;;;;;;491186;240;2184;-54
2021/01/07 11:22:24;;;;;;;;;;;19.30;37.50;;;;;;491237;240;1133;-54
2021/01/07 11:24:25;;;;;;;;;;;19.30;37.50;;;;;;491255;240;1221;-54
2021/01/07 11:26:27;;;;;;;;;;;19.20;37.50;;;;;;491279;240;1193;-54
2021/01/07 11:28:27;;;;;;;;;;;19.20;37.50;;;;;;491196;240;1538;-54
2021/01/07 11:30:29;;;;;;;;;;;19.20;37.50;;;;;;491162;240;1093;-54
2021/01/07 11:32:30;;;;;;;;;;;19.20;37.50;;;;;;491039;240;1351;-54
2021/01/07 11:34:31;;;;;;;;;;;19.10;37.50;;;;;;491176;240;1194;-54
2021/01/07 11:36:34;;;;;;;;;;;19.10;37.50;;;;;;491120;240;1218;-54
2021/01/07 11:38:34;;;;;;;;;;;19.10;36.20;;;;;;491053;240;1350;-54
2021/01/07 11:40:35;;;;;;;;;;;19.10;37.60;;;;;;491081;240;2137;-54
2021/01/07 11:42:36;;;;;;;;;;;19.10;37.60;;;;;;491042;240;1032;-54
2021/01/07 11:44:37;;;;;;;;;;;19.10;37.70;;;;;;491221;240;1010;-53
2021/01/07 11:46:41;;;;;;;;;;;19.00;37.60;;;;;;491099;240;1058;-54
2021/01/07 11:48:42;;;;;;;;;;;19.00;37.70;;;;;;491284;240;1026;-54
2021/01/07 11:50:43;;;;;;;;;;;19.00;37.70;;;;;;491122;240;1192;-54
2021/01/07 11:52:44;;;;;;;;;;;19.00;37.70;;;;;;491110;240;1055;-54
2021/01/07 11:54:46;;;;;;;;;;;19.00;36.40;;;;;;491167;240;1053;-54
2021/01/07 11:56:48;;;;;;;;;;;19.00;36.50;;;;;;491086;240;1254;-54